Time;durP1;ratioP1;P1;durP2;ratioP2;P2;SDS_P1;SDS_P2;PMS_P1;PMS_P2;Temp;Humidity;BMP_temperature;BMP_pressure;BME280_temperature;BME280_humidity;BME280_pressure;Samples;Min_cycle;Max_cycle;Signal;HPM_P1;HPM_P2
2021/05/01 00:01:13;;;;;;;21.97;19.63;;;12.20;95.50;;;;;;4993672;28;20163;-79
2021/05/01 00:03:39;;;;;;;20.03;18.07;;;12.20;95.70;;;;;;4976020;28;20245;-78
2021/05/01 00:06:05;;;;;;;21.07;18.87;;;12.20;95.70;;;;;;4976043;28;20606;-79
2021/05/01 00:08:31;;;;;;;18.00;16.30;;;12.20;95.90;;;;;;4992915;28;20702;-79
2021/05/01 00:11:00;;;;;;;23.03;20.90;;;12.20;96.10;;;;;;4976112;28;20207;-78
2021/05/01 00:13:27;;;;;;;23.20;20.70;;;12.10;96.10;;;;;;4995550;23;20220;-76
2021/05/01 00:15:52;;;;;;;21.48;19.48;;;12.10;96.30;;;;;;4951237;28;20187;-77
2021/05/01 00:18:18;;;;;;;24.37;21.77;;;12.10;96.50;;;;;;4937643;29;20172;-77
2021/05/01 00:20:44;;;;;;;22.17;19.80;;;12.10;96.70;;;;;;4954961;29;20200;-78
2021/05/01 00:23:09;;;;;;;20.23;18.13;;;12.10;96.80;;;;;;4953076;28;20685;-76
2021/05/01 00:25:35;;;;;;;22.37;20.07;;;12.20;96.80;;;;;;4956901;28;20574;-77
2021/05/01 00:28:01;;;;;;;22.67;20.47;;;12.10;96.80;;;;;;4956270;28;20178;-78
2021/05/01 00:30:27;;;;;;;22.70;20.50;;;12.10;97.10;;;;;;4957048;28;20250;-77
2021/05/01 00:32:53;;;;;;;21.07;19.07;;;12.10;97.30;;;;;;4957544;28;20215;-77
2021/05/01 00:35:18;;;;;;;22.17;20.07;;;12.10;97.20;;;;;;4956928;28;20206;-77
2021/05/01 00:37:44;;;;;;;24.43;21.90;;;12.10;97.30;;;;;;4973996;28;20207;-77
2021/05/01 00:40:11;;;;;;;23.77;21.57;;;12.10;97.50;;;;;;4974323;28;20583;-77
2021/05/01 00:42:37;;;;;;;25.65;22.95;;;12.10;97.60;;;;;;4974047;28;20691;-78
2021/05/01 00:45:06;;;;;;;22.83;20.52;;;12.10;97.70;;;;;;4973733;28;20182;-77
2021/05/01 00:47:32;;;;;;;23.00;20.70;;;12.10;98.00;;;;;;4973843;28;20168;-77
2021/05/01 00:50:01;;;;;;;25.47;22.90;;;12.00;97.70;;;;;;4957039;28;20168;-77
2021/05/01 00:52:27;;;;;;;23.27;21.08;;;12.00;98.00;;;;;;4974657;28;20591;-77
2021/05/01 00:54:53;;;;;;;21.60;19.63;;;12.00;97.80;;;;;;4974512;28;20210;-77
2021/05/01 00:57:21;;;;;;;22.70;20.48;;;11.90;97.80;;;;;;4957449;28;20183;-76
2021/05/01 00:59:47;;;;;;;21.73;19.70;;;11.90;97.80;;;;;;4956851;28;20527;-78
2021/05/01 01:02:15;;;;;;;23.30;21.00;;;11.90;97.80;;;;;;4956256;28;20662;-77
2021/05/01 01:04:41;;;;;;;23.60;21.30;;;11.80;97.70;;;;;;4973680;28;20574;-77
2021/05/01 01:07:10;;;;;;;24.85;22.35;;;11.80;97.90;;;;;;4956399;28;20573;-77
2021/05/01 01:09:36;;;;;;;24.48;21.92;;;11.80;97.90;;;;;;4940218;28;20167;-77
2021/05/01 01:12:02;;;;;;;26.50;23.90;;;11.70;97.80;;;;;;4955904;28;20262;-77
2021/05/01 01:14:27;;;;;;;26.27;23.50;;;11.60;97.80;;;;;;4955930;28;20227;-76
2021/05/01 01:16:53;;;;;;;25.50;23.00;;;11.50;97.70;;;;;;4955441;28;20230;-77
2021/05/01 01:19:19;;;;;;;25.90;23.40;;;11.50;97.90;;;;;;4955928;28;20578;-77
2021/05/01 01:21:49;;;;;;;23.90;21.50;;;11.40;97.90;;;;;;4956041;28;20195;-77
2021/05/01 01:24:15;;;;;;;26.45;23.65;;;11.40;98.20;;;;;;4955829;28;21046;-77
2021/05/01 01:26:42;;;;;;;23.05;20.80;;;11.30;98.00;;;;;;4972791;28;20571;-76
2021/05/01 01:29:13;;;;;;;25.60;23.15;;;11.20;98.10;;;;;;4973231;28;20705;-77
2021/05/01 01:31:39;;;;;;;25.90;23.42;;;11.20;98.20;;;;;;4973022;28;20163;-78
2021/05/01 01:34:05;;;;;;;26.83;24.15;;;11.10;98.40;;;;;;4955896;28;20580;-78
2021/05/01 01:36:31;;;;;;;24.43;21.93;;;11.10;98.40;;;;;;4956443;28;20175;-78
2021/05/01 01:38:57;;;;;;;26.05;23.40;;;11.00;98.50;;;;;;4973830;28;20167;-77
2021/05/01 01:41:24;;;;;;;25.73;23.00;;;11.00;98.50;;;;;;4940776;28;20527;-76
2021/05/01 01:43:50;;;;;;;28.27;25.45;;;10.90;98.60;;;;;;4973960;28;20199;-77
2021/05/01 01:46:15;;;;;;;28.77;25.43;;;10.80;98.70;;;;;;4971085;28;20189;-76
2021/05/01 01:48:42;;;;;;;28.43;25.47;;;10.70;98.70;;;;;;4979247;28;20171;-77
2021/05/01 01:51:07;;;;;;;28.77;25.80;;;10.70;99.00;;;;;;4979628;28;20243;-76
2021/05/01 01:53:33;;;;;;;28.00;25.10;;;10.60;99.20;;;;;;4982330;28;20242;-78
2021/05/01 01:56:02;;;;;;;28.27;25.40;;;10.60;99.30;;;;;;4994924;28;20183;-78
2021/05/01 01:58:28;;;;;;;28.77;25.92;;;10.50;99.30;;;;;;4997663;28;20356;-76
2021/05/01 02:00:54;;;;;;;29.20;26.40;;;10.40;99.50;;;;;;4987393;28;20176;-77
2021/05/01 02:03:20;;;;;;;29.90;26.80;;;10.40;99.60;;;;;;4978150;28;20290;-77
2021/05/01 02:05:46;;;;;;;29.47;26.63;;;10.30;99.80;;;;;;4944126;28;20606;-78
2021/05/01 02:08:13;;;;;;;27.67;24.77;;;10.20;99.80;;;;;;4959752;28;20238;-77
2021/05/01 02:10:39;;;;;;;29.40;26.25;;;10.20;99.90;;;;;;4944179;28;21146;-78
2021/05/01 02:13:05;;;;;;;28.02;25.13;;;10.20;99.90;;;;;;4959899;28;20558;-77
2021/05/01 02:15:32;;;;;;;29.60;26.43;;;10.10;99.90;;;;;;4959662;28;20168;-78
2021/05/01 02:17:58;;;;;;;29.85;25.98;;;10.00;99.90;;;;;;4959033;28;21199;-77
2021/05/01 02:20:28;;;;;;;28.67;25.77;;;10.00;99.90;;;;;;4976380;28;20179;-78
2021/05/01 02:22:54;;;;;;;25.70;23.20;;;10.00;99.90;;;;;;4976138;28;20192;-77
2021/05/01 02:25:20;;;;;;;29.25;26.25;;;9.90;99.90;;;;;;4976162;28;20179;-78
2021/05/01 02:27:46;;;;;;;31.42;28.13;;;9.90;99.90;;;;;;4975640;28;20187;-76
2021/05/01 02:30:15;;;;;;;27.13;24.33;;;9.80;99.90;;;;;;4975915;28;20586;-77
2021/05/01 02:32:41;;;;;;;27.20;24.40;;;9.80;99.90;;;;;;4958482;28;20184;-77
2021/05/01 02:35:08;;;;;;;25.67;23.13;;;9.70;99.90;;;;;;4958413;28;20182;-77
2021/05/01 02:37:34;;;;;;;27.73;24.92;;;9.70;99.90;;;;;;4975354;28;20223;-76
2021/05/01 02:40:05;;;;;;;27.73;24.77;;;9.60;99.90;;;;;;4958502;28;20553;-77
2021/05/01 02:42:31;;;;;;;30.08;26.98;;;9.60;99.90;;;;;;4958381;28;20325;-77
2021/05/01 02:44:57;;;;;;;30.48;27.30;;;9.60;99.90;;;;;;4975737;28;20176;-77
2021/05/01 02:47:24;;;;;;;28.80;25.70;;;9.50;99.90;;;;;;4975390;28;20194;-77
2021/05/01 02:49:50;;;;;;;30.98;27.77;;;9.50;99.90;;;;;;4975635;28;20184;-78
2021/05/01 02:52:16;;;;;;;29.60;26.50;;;9.40;99.90;;;;;;4958114;28;20191;-77
2021/05/01 02:54:41;;;;;;;30.03;26.97;;;9.40;99.90;;;;;;4975306;28;20196;-77
2021/05/01 02:57:07;;;;;;;34.10;27.80;;;9.40;99.90;;;;;;4974730;28;20195;-78
2021/05/01 02:59:33;;;;;;;35.83;28.83;;;9.30;99.90;;;;;;4975065;28;20186;-77
2021/05/01 03:01:58;;;;;;;32.03;28.50;;;9.30;99.90;;;;;;4957909;28;20196;-78
2021/05/01 03:04:30;;;;;;;28.57;25.67;;;9.30;99.90;;;;;;4975421;28;20168;-77
2021/05/01 03:06:56;;;;;;;30.98;27.08;;;9.20;99.90;;;;;;4974800;28;20171;-77
2021/05/01 03:09:22;;;;;;;30.30;27.00;;;9.20;99.90;;;;;;4975195;28;20172;-78
2021/05/01 03:11:48;;;;;;;31.30;28.00;;;9.20;99.90;;;;;;4975249;28;20168;-77
2021/05/01 03:14:13;;;;;;;31.77;28.27;;;9.10;99.90;;;;;;4975121;28;20916;-77
2021/05/01 03:16:39;;;;;;;31.33;28.00;;;9.10;99.90;;;;;;4957550;28;20171;-77
2021/05/01 03:19:05;;;;;;;32.27;28.57;;;9.10;99.90;;;;;;4975292;28;20215;-78
2021/05/01 03:21:31;;;;;;;31.25;28.05;;;9.10;99.90;;;;;;4975076;28;20575;-77
2021/05/01 03:23:57;;;;;;;31.10;28.00;;;9.00;99.90;;;;;;4974859;28;20198;-77
2021/05/01 03:26:22;;;;;;;31.13;27.93;;;9.00;99.90;;;;;;4974702;28;21145;-78
2021/05/01 03:28:48;;;;;;;30.50;27.20;;;9.00;99.90;;;;;;4974856;28;20180;-78
2021/05/01 03:31:14;;;;;;;35.63;30.63;;;8.90;99.90;;;;;;4957542;28;20171;-78
2021/05/01 03:33:40;;;;;;;31.05;27.63;;;8.90;99.90;;;;;;4974671;28;20545;-78
2021/05/01 03:36:06;;;;;;;33.97;29.77;;;8.90;99.90;;;;;;4941378;28;20183;-78
2021/05/01 03:38:32;;;;;;;32.78;29.30;;;8.90;99.90;;;;;;4957317;28;20172;-77
2021/05/01 03:41:00;;;;;;;38.83;27.83;;;8.90;99.90;;;;;;4974698;28;20522;-78
2021/05/01 03:43:25;;;;;;;35.08;31.48;;;8.80;99.90;;;;;;4974480;28;20192;-78
2021/05/01 03:45:54;;;;;;;32.37;28.90;;;8.80;99.90;;;;;;4974572;28;20210;-78
2021/05/01 03:48:20;;;;;;;32.05;28.55;;;8.80;99.90;;;;;;4956940;28;20227;-78
2021/05/01 03:50:46;;;;;;;31.87;28.70;;;8.80;99.90;;;;;;4957185;28;20175;-77
2021/05/01 03:53:12;;;;;;;30.73;27.43;;;8.70;99.90;;;;;;4974190;28;20286;-76
2021/05/01 03:55:37;;;;;;;30.23;26.97;;;8.70;99.90;;;;;;4974191;28;20175;-77
2021/05/01 03:58:03;;;;;;;33.13;29.67;;;8.70;99.90;;;;;;4973845;28;20655;-78
2021/05/01 04:00:29;;;;;;;31.97;28.47;;;8.80;99.90;;;;;;4956851;28;20172;-76
2021/05/01 04:02:55;;;;;;;31.63;28.37;;;8.80;99.90;;;;;;4957016;28;20266;-77
2021/05/01 04:05:23;;;;;;;34.83;29.20;;;8.90;99.90;;;;;;4974105;28;20568;-76
2021/05/01 04:07:49;;;;;;;31.83;28.47;;;8.90;99.90;;;;;;4973650;28;20219;-77
2021/05/01 04:10:16;;;;;;;33.53;30.00;;;9.00;99.90;;;;;;4973202;28;20183;-77
2021/05/01 04:12:41;;;;;;;34.10;28.73;;;9.00;99.90;;;;;;4973902;28;20210;-75
2021/05/01 04:15:08;;;;;;;37.63;29.57;;;9.10;99.90;;;;;;4956786;28;20248;-77
2021/05/01 04:17:34;;;;;;;34.83;31.13;;;9.20;99.90;;;;;;4973481;28;20662;-77
2021/05/01 04:19:59;;;;;;;32.00;28.00;;;9.20;99.90;;;;;;4956415;28;20271;-77
2021/05/01 04:22:25;;;;;;;32.80;29.30;;;9.30;99.90;;;;;;4973893;28;20194;-77
2021/05/01 04:24:51;;;;;;;33.92;29.95;;;9.40;99.90;;;;;;4973599;28;20164;-77
2021/05/01 04:27:18;;;;;;;33.73;30.20;;;9.40;99.90;;;;;;4973379;28;20174;-77
2021/05/01 04:29:44;;;;;;;33.85;30.42;;;9.50;99.90;;;;;;4973749;28;20582;-76
2021/05/01 04:32:09;;;;;;;34.03;30.27;;;9.50;99.90;;;;;;4940036;28;20175;-78
2021/05/01 04:34:36;;;;;;;33.90;28.90;;;9.60;99.90;;;;;;4973609;28;20707;-76
2021/05/01 04:37:02;;;;;;;33.00;29.35;;;9.60;99.90;;;;;;4973234;28;20567;-76
2021/05/01 04:39:31;;;;;;;34.25;29.75;;;9.70;99.90;;;;;;4973558;28;20168;-76
2021/05/01 04:41:57;;;;;;;30.83;27.47;;;9.70;99.90;;;;;;4955972;28;20175;-77
2021/05/01 04:44:23;;;;;;;35.43;31.60;;;9.70;99.90;;;;;;4973560;28;20563;-78
2021/05/01 04:46:52;;;;;;;33.88;30.42;;;9.80;99.90;;;;;;4973239;28;20614;-76
2021/05/01 04:49:19;;;;;;;32.95;29.40;;;9.80;99.90;;;;;;4940150;28;20179;-77
2021/05/01 04:51:45;;;;;;;35.90;30.02;;;9.90;99.90;;;;;;4973336;28;20190;-77
2021/05/01 04:54:11;;;;;;;31.58;28.23;;;9.90;99.90;;;;;;4973223;28;20225;-77
2021/05/01 04:56:38;;;;;;;29.57;26.47;;;9.90;99.90;;;;;;4955728;28;20656;-77
2021/05/01 04:59:07;;;;;;;31.13;27.35;;;10.00;99.90;;;;;;4973229;28;20903;-78
2021/05/01 05:01:34;;;;;;;30.50;27.13;;;10.00;99.90;;;;;;4939917;28;20203;-77
2021/05/01 05:04:00;;;;;;;36.72;29.50;;;10.00;99.90;;;;;;4973007;28;20195;-77
2021/05/01 05:06:26;;;;;;;32.67;29.33;;;10.10;99.90;;;;;;4955487;28;20176;-78
2021/05/01 05:08:52;;;;;;;31.73;28.40;;;10.10;99.90;;;;;;4955713;28;20171;-76
2021/05/01 05:11:18;;;;;;;30.33;27.37;;;10.10;99.90;;;;;;4973244;28;20615;-77
2021/05/01 05:13:43;;;;;;;33.60;26.53;;;10.20;99.90;;;;;;4972910;28;20203;-78
2021/05/01 05:16:09;;;;;;;32.87;29.40;;;10.20;99.90;;;;;;4956190;28;20632;-78
2021/05/01 05:18:35;;;;;;;31.73;28.33;;;10.20;99.90;;;;;;4972681;28;20171;-76
2021/05/01 05:21:01;;;;;;;29.00;26.30;;;10.20;99.90;;;;;;4973623;28;20172;-78
2021/05/01 05:23:27;;;;;;;33.23;29.37;;;10.20;99.90;;;;;;4955583;28;20199;-76
2021/05/01 05:25:52;;;;;;;32.13;28.98;;;10.30;99.90;;;;;;4973204;28;20168;-77
2021/05/01 05:28:18;;;;;;;34.30;30.77;;;10.30;99.90;;;;;;4955357;28;20222;-77
2021/05/01 05:30:44;;;;;;;37.93;31.50;;;10.40;99.90;;;;;;4972889;28;20234;-76
2021/05/01 05:33:10;;;;;;;36.30;30.43;;;10.40;99.90;;;;;;4955541;28;20637;-77
2021/05/01 05:35:35;;;;;;;33.07;29.20;;;10.50;99.90;;;;;;4972781;28;20178;-76
2021/05/01 05:38:01;;;;;;;36.33;32.43;;;10.50;99.90;;;;;;4968427;28;20557;-75
2021/05/01 05:40:28;;;;;;;31.93;28.33;;;10.60;99.90;;;;;;4969177;28;20226;-76
2021/05/01 05:42:54;;;;;;;32.38;28.92;;;10.60;99.90;;;;;;4954969;28;20602;-76
2021/05/01 05:45:26;;;;;;;31.93;27.50;;;10.60;99.90;;;;;;4972331;28;20632;-78
2021/05/01 05:47:52;;;;;;;30.02;25.95;;;10.70;99.90;;;;;;4972009;28;20527;-78
2021/05/01 05:50:18;;;;;;;29.52;26.25;;;10.80;99.90;;;;;;4955048;28;20594;-78
2021/05/01 05:52:44;;;;;;;30.43;25.03;;;10.90;99.90;;;;;;4938850;28;20278;-77
2021/05/01 05:55:10;;;;;;;27.87;25.03;;;11.10;99.90;;;;;;4972284;28;20594;-77
2021/05/01 05:57:38;;;;;;;28.83;24.50;;;11.40;99.90;;;;;;4971938;28;20594;-77
2021/05/01 06:00:06;;;;;;;25.73;21.50;;;11.60;99.90;;;;;;4955048;28;20172;-77
2021/05/01 06:02:42;;;;;;;22.40;20.10;;;11.80;99.90;;;;;;4954460;28;20191;-77
2021/05/01 06:05:13;;;;;;;26.67;19.98;;;11.90;99.90;;;;;;4955214;28;20660;-79
2021/05/01 06:07:43;;;;;;;19.05;17.10;;;11.90;99.90;;;;;;4977057;28;20183;-78
2021/05/01 06:10:13;;;;;;;17.15;15.45;;;12.00;99.90;;;;;;4955220;28;20182;-78
2021/05/01 06:12:41;;;;;;;19.70;17.63;;;12.10;99.90;;;;;;4954437;28;20204;-78
2021/05/01 06:15:08;;;;;;;19.13;16.27;;;12.40;99.90;;;;;;4972156;28;20179;-79
2021/05/01 06:17:36;;;;;;;26.38;18.90;;;12.70;99.90;;;;;;4955478;28;20219;-78
2021/05/01 06:20:04;;;;;;;18.80;16.85;;;13.20;99.90;;;;;;4939109;28;20168;-77
2021/05/01 06:22:30;;;;;;;13.95;12.27;;;13.70;99.90;;;;;;4954943;28;20242;-78
2021/05/01 06:24:56;;;;;;;17.20;12.93;;;14.40;99.90;;;;;;4972561;28;20261;-78
2021/05/01 06:27:22;;;;;;;13.43;12.07;;;15.10;99.90;;;;;;4971992;28;20570;-78
2021/05/01 06:29:49;;;;;;;11.30;10.10;;;15.80;99.90;;;;;;4954950;28;20567;-78
2021/05/01 06:32:16;;;;;;;13.30;11.40;;;16.60;99.90;;;;;;4938724;28;20657;-78
2021/05/01 06:34:54;;;;;;;11.00;9.77;;;17.30;99.90;;;;;;4942355;28;20648;-77
2021/05/01 06:37:21;;;;;;;11.23;9.10;;;18.00;99.90;;;;;;4957906;28;20911;-78
2021/05/01 06:39:49;;;;;;;10.33;8.80;;;18.90;99.90;;;;;;4975703;28;20662;-78
2021/05/01 06:42:27;;;;;;;6.97;6.30;;;19.50;99.90;;;;;;4958407;28;20653;-79
2021/05/01 06:45:02;;;;;;;8.07;6.77;;;20.10;99.90;;;;;;4975592;28;20581;-78
2021/05/01 06:47:31;;;;;;;6.60;5.90;;;20.60;99.90;;;;;;4975521;28;20570;-77
2021/05/01 06:50:16;;;;;;;6.80;5.33;;;21.20;99.90;;;;;;4959505;28;20567;-77
2021/05/01 06:52:44;;;;;;;8.43;6.97;;;21.70;99.80;;;;;;4958667;28;20602;-77
2021/05/01 06:55:12;;;;;;;7.43;6.73;;;22.30;98.20;;;;;;4958809;28;20611;-76
2021/05/01 06:57:47;;;;;;;8.10;7.30;;;22.80;97.20;;;;;;4942280;28;20629;-77
2021/05/01 07:00:18;;;;;;;7.03;6.17;;;23.00;95.40;;;;;;4974607;28;20575;-76
2021/05/01 07:02:46;;;;;;;7.97;6.17;;;23.50;94.60;;;;;;4975843;28;20651;-75
2021/05/01 07:05:22;;;;;;;6.23;5.73;;;23.90;93.70;;;;;;4975034;28;20578;-76
2021/05/01 07:07:51;;;;;;;7.93;6.40;;;24.50;93.00;;;;;;4976243;28;20575;-77
2021/05/01 07:10:18;;;;;;;8.40;7.70;;;25.00;92.60;;;;;;4976328;28;20927;-78
2021/05/01 07:12:45;;;;;;;7.57;6.87;;;25.30;90.90;;;;;;4974982;28;20207;-78
2021/05/01 07:15:13;;;;;;;7.33;6.70;;;25.50;88.70;;;;;;4958028;28;20563;-78
2021/05/01 07:17:40;;;;;;;8.80;8.00;;;25.50;85.40;;;;;;4974651;28;21189;-77
2021/05/01 07:20:09;;;;;;;8.63;7.73;;;25.00;79.60;;;;;;4958498;28;20671;-78
2021/05/01 07:22:35;;;;;;;8.83;7.90;;;24.40;76.70;;;;;;4938187;29;20608;-77
2021/05/01 07:25:02;;;;;;;9.37;8.50;;;24.10;77.50;;;;;;4953694;29;21167;-77
2021/05/01 07:27:35;;;;;;;10.17;9.20;;;24.20;78.80;;;;;;4936510;29;20595;-78
2021/05/01 07:30:08;;;;;;;8.83;8.03;;;24.30;79.00;;;;;;4955553;28;21190;-78
2021/05/01 07:32:38;;;;;;;10.87;9.83;;;24.60;78.70;;;;;;4955293;28;20600;-78
2021/05/01 07:35:06;;;;;;;11.17;10.07;;;24.70;76.40;;;;;;4954178;29;20624;-77
2021/05/01 07:37:36;;;;;;;10.87;9.87;;;25.00;76.50;;;;;;4954774;28;20564;-77
2021/05/01 07:40:05;;;;;;;9.57;8.67;;;25.20;74.70;;;;;;4955269;28;20564;-78
2021/05/01 07:42:42;;;;;;;9.83;9.03;;;25.20;73.80;;;;;;4953821;29;20655;-77
2021/05/01 07:45:10;;;;;;;10.73;9.93;;;24.80;69.10;;;;;;4955107;28;21198;-78
2021/05/01 07:47:37;;;;;;;10.83;9.73;;;24.10;66.70;;;;;;4954858;28;21111;-77
2021/05/01 07:50:06;;;;;;;10.90;9.93;;;23.50;66.40;;;;;;4955363;28;20564;-78
2021/05/01 07:52:35;;;;;;;9.80;8.90;;;23.10;66.20;;;;;;4953816;29;20603;-77
2021/05/01 07:55:01;;;;;;;15.10;10.17;;;22.90;67.50;;;;;;4955123;28;20624;-77
2021/05/01 07:57:27;;;;;;;10.67;9.77;;;22.60;66.40;;;;;;4956347;28;20568;-77
2021/05/01 07:59:53;;;;;;;10.90;9.90;;;22.20;66.20;;;;;;4954914;28;20585;-77
2021/05/01 08:02:19;;;;;;;10.17;9.30;;;21.90;65.70;;;;;;4953712;29;20203;-77
2021/05/01 08:04:45;;;;;;;10.83;9.90;;;21.50;65.40;;;;;;4953751;29;20681;-78
2021/05/01 08:07:10;;;;;;;9.80;8.90;;;21.20;65.30;;;;;;4954477;28;21235;-78
2021/05/01 08:09:36;;;;;;;10.47;9.47;;;20.80;65.40;;;;;;4954790;28;20239;-78
2021/05/01 08:12:02;;;;;;;10.40;9.47;;;20.60;65.50;;;;;;4953994;28;20173;-78
2021/05/01 08:14:28;;;;;;;10.77;9.73;;;20.40;65.00;;;;;;4974284;28;20577;-78
2021/05/01 08:16:54;;;;;;;9.43;8.60;;;20.10;65.60;;;;;;4956533;28;20571;-78
2021/05/01 08:19:19;;;;;;;10.33;9.47;;;19.90;65.80;;;;;;4956597;28;20168;-78
2021/05/01 08:21:45;;;;;;;10.40;8.97;;;19.70;65.60;;;;;;4956397;28;20172;-78
2021/05/01 08:24:11;;;;;;;12.93;10.07;;;19.70;66.80;;;;;;4955706;28;20210;-79
2021/05/01 08:26:37;;;;;;;9.30;8.40;;;19.90;68.40;;;;;;4973415;28;20259;-78
2021/05/01 08:29:03;;;;;;;8.70;7.90;;;20.00;68.10;;;;;;4973638;28;20654;-79
2021/05/01 08:31:29;;;;;;;8.40;7.70;;;20.10;67.20;;;;;;4956802;28;20213;-79
2021/05/01 08:33:55;;;;;;;9.17;8.27;;;20.00;66.40;;;;;;4973483;28;20638;-77
2021/05/01 08:36:21;;;;;;;8.80;7.90;;;19.80;65.40;;;;;;4956140;28;20603;-79
2021/05/01 08:38:47;;;;;;;9.83;8.77;;;19.60;65.30;;;;;;4955884;28;20172;-79
2021/05/01 08:41:12;;;;;;;8.30;7.43;;;19.90;67.70;;;;;;4974411;28;20563;-79
2021/05/01 08:43:38;;;;;;;12.43;8.70;;;20.50;69.80;;;;;;4973173;28;20199;-78
2021/05/01 08:46:14;;;;;;;7.30;6.60;;;21.10;71.00;;;;;;4956612;28;20179;-78
2021/05/01 08:48:44;;;;;;;7.50;6.50;;;21.70;70.20;;;;;;4956224;28;20179;-78
2021/05/01 08:51:11;;;;;;;8.00;7.20;;;22.00;68.00;;;;;;4955988;28;20587;-78
2021/05/01 08:53:37;;;;;;;9.80;7.90;;;22.10;66.30;;;;;;4956571;28;20638;-78
2021/05/01 08:56:03;;;;;;;8.87;7.97;;;22.20;66.00;;;;;;4956951;28;20630;-79
2021/05/01 08:58:29;;;;;;;8.80;7.93;;;22.30;65.30;;;;;;4955678;28;21019;-79
2021/05/01 09:00:55;;;;;;;11.03;10.03;;;22.30;65.10;;;;;;4955967;28;20674;-78
2021/05/01 09:03:22;;;;;;;10.60;9.60;;;22.50;64.40;;;;;;4973283;28;20573;-78
2021/05/01 09:05:50;;;;;;;9.70;8.90;;;22.50;63.40;;;;;;4955993;28;20690;-79
2021/05/01 09:09:08;;;;;;;8.73;8.03;;;22.40;62.10;;;;;;4956538;28;20594;-79
2021/05/01 09:11:45;;;;;;;11.87;10.80;;;22.40;62.30;;;;;;4953604;28;20657;-77
2021/05/01 09:14:26;;;;;;;10.70;9.70;;;22.70;63.00;;;;;;4939539;28;20639;-77
2021/05/01 09:16:57;;;;;;;9.47;8.53;;;23.20;63.60;;;;;;4955139;28;20578;-77
2021/05/01 09:19:40;;;;;;;9.93;9.13;;;23.80;64.80;;;;;;4939611;28;20634;-77
2021/05/01 09:22:09;;;;;;;9.60;8.70;;;24.60;64.10;;;;;;4955622;28;20578;-78
2021/05/01 09:24:35;;;;;;;10.73;9.83;;;25.10;64.50;;;;;;4972816;28;20567;-77
2021/05/01 09:27:03;;;;;;;9.63;8.47;;;25.30;59.10;;;;;;4972548;28;20610;-77
2021/05/01 09:29:56;;;;;;;12.40;11.20;;;25.00;58.20;;;;;;4973498;28;20603;-77
2021/05/01 09:32:27;;;;;;;9.40;8.50;;;24.60;56.50;;;;;;4970865;28;20626;-78
2021/05/01 09:34:54;;;;;;;8.37;7.57;;;24.00;55.40;;;;;;4972908;28;20625;-77
2021/05/01 09:37:23;;;;;;;7.90;7.17;;;23.70;56.10;;;;;;4972711;28;20564;-77
2021/05/01 09:39:55;;;;;;;9.53;8.70;;;23.70;55.70;;;;;;4972738;28;20563;-76
2021/05/01 09:42:22;;;;;;;8.73;7.70;;;23.80;55.30;;;;;;4972671;28;20626;-76
2021/05/01 09:45:18;;;;;;;9.63;8.73;;;23.90;56.20;;;;;;4972610;28;20582;-76
2021/05/01 09:47:51;;;;;;;9.63;8.83;;;24.00;55.60;;;;;;4972506;28;20582;-77
2021/05/01 09:50:26;;;;;;;8.93;7.97;;;24.00;55.50;;;;;;4972649;28;20917;-77
2021/05/01 09:53:04;;;;;;;7.27;6.67;;;24.00;54.60;;;;;;4972856;28;20698;-75
2021/05/01 09:55:50;;;;;;;6.63;6.03;;;24.30;54.90;;;;;;4955430;28;20559;-76
2021/05/01 09:58:21;;;;;;;6.90;6.40;;;24.70;56.00;;;;;;4939061;28;20908;-77
2021/05/01 10:00:50;;;;;;;6.97;6.30;;;25.00;54.50;;;;;;4972664;28;20572;-77
2021/05/01 10:03:33;;;;;;;7.57;6.87;;;25.20;54.40;;;;;;4939052;28;20610;-78
2021/05/01 10:06:00;;;;;;;8.07;6.60;;;25.40;53.10;;;;;;4962987;28;20580;-76
2021/05/01 10:08:31;;;;;;;9.40;6.80;;;25.60;52.70;;;;;;4937371;29;20578;-77
2021/05/01 10:11:06;;;;;;;7.37;6.67;;;25.70;52.30;;;;;;4923784;29;20679;-76
2021/05/01 10:13:32;;;;;;;9.20;6.80;;;25.80;50.60;;;;;;4936327;29;20632;-77
2021/05/01 10:16:06;;;;;;;6.47;5.97;;;25.80;50.70;;;;;;4937714;29;20577;-77
2021/05/01 10:18:31;;;;;;;7.23;6.53;;;25.90;50.40;;;;;;4937220;29;20583;-76
2021/05/01 10:20:57;;;;;;;7.27;6.57;;;25.90;50.50;;;;;;4937580;29;20664;-77
2021/05/01 10:23:23;;;;;;;7.47;6.47;;;26.10;50.90;;;;;;4936478;29;20197;-77
2021/05/01 10:25:49;;;;;;;7.77;5.30;;;26.40;50.60;;;;;;4936291;29;20654;-77
2021/05/01 10:28:20;;;;;;;6.93;5.00;;;26.60;49.70;;;;;;4937116;29;20252;-77
2021/05/01 10:30:57;;;;;;;6.40;5.80;;;26.80;49.50;;;;;;4920681;29;20584;-77
2021/05/01 10:33:31;;;;;;;7.50;6.80;;;27.20;48.70;;;;;;4936285;29;20643;-77
2021/05/01 10:36:15;;;;;;;7.23;6.53;;;27.50;48.60;;;;;;4937644;29;20592;-75
2021/05/01 10:38:41;;;;;;;6.63;6.03;;;27.80;45.60;;;;;;4937119;29;20569;-75
2021/05/01 10:41:15;;;;;;;7.90;5.70;;;27.70;45.80;;;;;;4936820;29;20620;-75
2021/05/01 10:43:51;;;;;;;6.93;6.43;;;27.50;45.20;;;;;;4937791;29;20196;-75
2021/05/01 10:46:28;;;;;;;7.07;6.37;;;27.30;45.00;;;;;;4936454;29;20619;-77
2021/05/01 10:49:02;;;;;;;9.20;7.77;;;27.00;44.70;;;;;;4935986;29;20577;-77
2021/05/01 10:51:30;;;;;;;6.73;6.10;;;26.70;45.10;;;;;;4936440;29;20580;-77
2021/05/01 10:54:26;;;;;;;8.60;7.43;;;26.40;44.00;;;;;;4938144;29;21041;-75
2021/05/01 10:56:55;;;;;;;10.20;7.90;;;26.10;43.30;;;;;;4910346;29;20584;-76
2021/05/01 10:59:22;;;;;;;7.33;6.67;;;25.80;43.80;;;;;;4937928;29;20984;-76
2021/05/01 11:01:50;;;;;;;5.80;5.30;;;25.70;44.30;;;;;;4943872;29;20568;-77
2021/05/01 11:04:21;;;;;;;7.17;6.47;;;25.60;43.80;;;;;;4945222;29;20608;-77
2021/05/01 11:06:52;;;;;;;8.73;6.70;;;25.60;44.10;;;;;;4938093;29;21218;-75
2021/05/01 11:09:36;;;;;;;8.90;8.00;;;25.70;44.20;;;;;;4939284;29;20644;-75
2021/05/01 11:12:07;;;;;;;8.47;7.50;;;25.60;43.60;;;;;;4938619;29;20568;-77
2021/05/01 11:14:39;;;;;;;7.80;7.10;;;25.60;43.90;;;;;;4939956;29;20714;-78
2021/05/01 11:17:15;;;;;;;7.13;6.53;;;25.70;44.20;;;;;;4940130;29;20592;-76
2021/05/01 11:19:46;;;;;;;7.73;7.03;;;25.80;44.00;;;;;;4956181;28;20966;-75
2021/05/01 11:22:21;;;;;;;8.53;7.60;;;25.90;44.10;;;;;;4961209;29;21286;-76
2021/05/01 11:24:48;;;;;;;7.40;6.80;;;26.00;43.40;;;;;;4956750;29;20580;-77
2021/05/01 11:27:13;;;;;;;7.17;6.57;;;26.00;42.00;;;;;;4955650;29;20580;-77
2021/05/01 11:29:40;;;;;;;6.10;5.70;;;25.90;42.60;;;;;;4963136;29;21143;-77
2021/05/01 11:32:07;;;;;;;6.57;5.73;;;25.90;43.00;;;;;;4956054;29;20179;-76
2021/05/01 11:34:35;;;;;;;6.33;5.83;;;25.90;43.20;;;;;;4939556;29;21245;-77
2021/05/01 11:37:04;;;;;;;5.70;5.27;;;26.10;43.80;;;;;;4938646;29;21202;-77
2021/05/01 11:39:34;;;;;;;6.90;6.30;;;26.20;43.00;;;;;;4956163;29;20583;-77
2021/05/01 11:42:01;;;;;;;5.17;4.77;;;26.30;43.40;;;;;;4955681;29;20623;-76
2021/05/01 11:45:24;;;;;;;7.37;6.50;;;26.50;43.40;;;;;;4938089;29;20673;-76
2021/05/01 11:47:52;;;;;;;6.20;5.60;;;26.60;43.10;;;;;;4935671;29;20678;-77
2021/05/01 11:50:19;;;;;;;6.43;5.50;;;26.80;43.40;;;;;;4955469;29;20591;-77
2021/05/01 11:53:05;;;;;;;5.03;4.63;;;26.90;42.80;;;;;;4955260;29;20747;-77
2021/05/01 11:55:33;;;;;;;6.60;5.77;;;26.90;41.50;;;;;;4936713;29;20591;-78
2021/05/01 11:58:01;;;;;;;4.77;4.37;;;26.90;41.90;;;;;;4937834;29;20653;-77
2021/05/01 12:00:33;;;;;;;7.10;4.50;;;27.00;41.90;;;;;;4954859;29;20666;-77
2021/05/01 12:03:03;;;;;;;6.27;4.20;;;26.90;41.50;;;;;;4954715;29;20607;-77
2021/05/01 12:05:35;;;;;;;4.13;3.40;;;27.00;41.40;;;;;;4937786;29;20615;-77
2021/05/01 12:08:13;;;;;;;4.23;3.67;;;26.90;40.60;;;;;;4954647;29;20572;-77
2021/05/01 12:10:44;;;;;;;4.27;3.97;;;26.70;40.10;;;;;;4921819;29;21032;-77
2021/05/01 12:13:13;;;;;;;3.50;3.20;;;26.50;40.00;;;;;;4954662;29;20612;-77
2021/05/01 12:15:49;;;;;;;4.00;3.43;;;26.30;39.80;;;;;;4954991;29;21237;-77
2021/05/01 12:18:15;;;;;;;5.17;3.70;;;26.10;39.80;;;;;;4936771;23;21325;-81
2021/05/01 12:20:42;;;;;;;4.80;3.63;;;25.90;39.10;;;;;;4941045;29;20585;-81
2021/05/01 12:23:35;;;;;;;3.97;3.57;;;25.60;39.40;;;;;;4915404;29;21012;-81
2021/05/01 12:26:01;;;;;;;3.80;3.30;;;25.30;38.90;;;;;;4945095;29;20616;-82
2021/05/01 12:28:37;;;;;;;4.30;3.90;;;25.00;39.20;;;;;;4942833;29;20712;-82
2021/05/01 12:31:04;;;;;;;3.67;3.30;;;24.80;38.70;;;;;;4931709;29;20651;-82
2021/05/01 12:33:30;;;;;;;4.07;3.00;;;24.50;39.10;;;;;;4930282;29;20930;-82
2021/05/01 12:36:03;;;;;;;3.47;2.60;;;24.30;39.20;;;;;;4931654;29;20651;-82
2021/05/01 12:38:31;;;;;;;2.97;2.37;;;24.10;39.00;;;;;;4912190;29;20212;-82
2021/05/01 12:41:06;;;;;;;3.40;3.00;;;23.90;39.10;;;;;;4926224;29;20670;-82
2021/05/01 12:43:31;;;;;;;3.30;2.57;;;23.70;38.50;;;;;;4925298;29;20642;-82
2021/05/01 12:45:59;;;;;;;3.40;2.57;;;23.60;38.90;;;;;;4909550;29;21112;-82